sensor_id;sensor_type;location;lat;lon;timestamp;P1;durP1;ratioP1;P2;durP2;ratioP2
1062;SDS011;520;50.932;6.962;2023-05-13T00:00:32;11.67;;;10.47;;
1062;SDS011;520;50.932;6.962;2023-05-13T00:03:17;11.70;;;10.40;;
1062;SDS011;520;50.932;6.962;2023-05-13T00:05:49;10.30;;;9.03;;
1062;SDS011;520;50.932;6.962;2023-05-13T00:08:38;11.53;;;10.23;;
1062;SDS011;520;50.932;6.962;2023-05-13T00:11:22;10.67;;;9.67;;
1062;SDS011;520;50.932;6.962;2023-05-13T00:14:05;10.40;;;8.50;;
1062;SDS011;520;50.932;6.962;2023-05-13T00:16:35;11.50;;;8.60;;
1062;SDS011;520;50.932;6.962;2023-05-13T00:19:04;9.70;;;8.40;;
1062;SDS011;520;50.932;6.962;2023-05-13T00:21:33;11.13;;;8.90;;
1062;SDS011;520;50.932;6.962;2023-05-13T00:24:08;10.30;;;8.60;;
1062;SDS011;520;50.932;6.962;2023-05-13T00:26:37;9.00;;;8.13;;
1062;SDS011;520;50.932;6.962;2023-05-13T00:29:13;8.40;;;7.60;;
1062;SDS011;520;50.932;6.962;2023-05-13T00:31:54;9.40;;;7.40;;
1062;SDS011;520;50.932;6.962;2023-05-13T00:34:29;8.47;;;7.60;;
1062;SDS011;520;50.932;6.962;2023-05-13T00:37:02;8.17;;;7.37;;
1062;SDS011;520;50.932;6.962;2023-05-13T00:39:34;10.53;;;8.60;;
1062;SDS011;520;50.932;6.962;2023-05-13T00:42:06;8.50;;;7.70;;
1062;SDS011;520;50.932;6.962;2023-05-13T00:44:48;9.73;;;8.70;;
1062;SDS011;520;50.932;6.962;2023-05-13T00:47:18;9.10;;;8.30;;
1062;SDS011;520;50.932;6.962;2023-05-13T00:49:53;11.00;;;9.20;;
1062;SDS011;520;50.932;6.962;2023-05-13T00:52:27;8.90;;;8.00;;
1062;SDS011;520;50.932;6.962;2023-05-13T00:54:59;8.73;;;7.67;;
1062;SDS011;520;50.932;6.962;2023-05-13T00:57:34;8.97;;;8.10;;
1062;SDS011;520;50.932;6.962;2023-05-13T01:00:04;8.77;;;7.90;;
1062;SDS011;520;50.932;6.962;2023-05-13T01:05:17;10.70;;;9.27;;
1062;SDS011;520;50.932;6.962;2023-05-13T01:07:57;9.10;;;7.77;;
1062;SDS011;520;50.932;6.962;2023-05-13T01:10:47;11.33;;;7.70;;
1062;SDS011;520;50.932;6.962;2023-05-13T01:13:32;9.23;;;8.20;;
1062;SDS011;520;50.932;6.962;2023-05-13T01:19:16;10.70;;;8.43;;
1062;SDS011;520;50.932;6.962;2023-05-13T01:22:00;8.80;;;7.90;;
1062;SDS011;520;50.932;6.962;2023-05-13T01:24:32;10.47;;;8.67;;
1062;SDS011;520;50.932;6.962;2023-05-13T01:27:01;12.53;;;8.40;;
1062;SDS011;520;50.932;6.962;2023-05-13T01:29:33;10.50;;;8.33;;
1062;SDS011;520;50.932;6.962;2023-05-13T01:32:05;9.27;;;8.37;;
1062;SDS011;520;50.932;6.962;2023-05-13T01:34:43;9.77;;;8.63;;
1062;SDS011;520;50.932;6.962;2023-05-13T01:37:13;9.30;;;8.40;;
1062;SDS011;520;50.932;6.962;2023-05-13T01:39:47;8.70;;;7.90;;
1062;SDS011;520;50.932;6.962;2023-05-13T01:42:21;9.50;;;8.03;;
1062;SDS011;520;50.932;6.962;2023-05-13T01:44:52;9.20;;;8.30;;
1062;SDS011;520;50.932;6.962;2023-05-13T01:47:28;9.00;;;8.13;;
1062;SDS011;520;50.932;6.962;2023-05-13T01:49:55;9.03;;;8.23;;
1062;SDS011;520;50.932;6.962;2023-05-13T01:52:27;11.00;;;8.70;;
1062;SDS011;520;50.932;6.962;2023-05-13T01:55:14;9.17;;;8.27;;
1062;SDS011;520;50.932;6.962;2023-05-13T01:57:56;9.77;;;8.20;;
1062;SDS011;520;50.932;6.962;2023-05-13T02:00:40;9.77;;;8.07;;
1062;SDS011;520;50.932;6.962;2023-05-13T02:03:16;9.27;;;8.37;;
1062;SDS011;520;50.932;6.962;2023-05-13T02:05:48;9.63;;;8.30;;
1062;SDS011;520;50.932;6.962;2023-05-13T02:08:27;9.60;;;8.60;;
1062;SDS011;520;50.932;6.962;2023-05-13T02:11:17;9.73;;;8.73;;
1062;SDS011;520;50.932;6.962;2023-05-13T02:13:50;8.33;;;7.57;;
1062;SDS011;520;50.932;6.962;2023-05-13T02:16:29;8.90;;;8.00;;
1062;SDS011;520;50.932;6.962;2023-05-13T02:19:05;10.37;;;8.40;;
1062;SDS011;520;50.932;6.962;2023-05-13T02:21:38;8.87;;;8.10;;
1062;SDS011;520;50.932;6.962;2023-05-13T02:24:22;8.60;;;7.57;;
1062;SDS011;520;50.932;6.962;2023-05-13T02:27:03;9.03;;;7.70;;
1062;SDS011;520;50.932;6.962;2023-05-13T02:29:49;9.17;;;7.50;;
1062;SDS011;520;50.932;6.962;2023-05-13T02:32:39;8.63;;;7.77;;
1062;SDS011;520;50.932;6.962;2023-05-13T02:35:14;7.77;;;7.03;;
1062;SDS011;520;50.932;6.962;2023-05-13T02:38:03;8.93;;;7.83;;
1062;SDS011;520;50.932;6.962;2023-05-13T02:40:42;10.97;;;7.97;;
1062;SDS011;520;50.932;6.962;2023-05-13T02:43:12;9.63;;;7.73;;
1062;SDS011;520;50.932;6.962;2023-05-13T02:46:02;10.20;;;8.57;;
1062;SDS011;520;50.932;6.962;2023-05-13T02:48:50;9.47;;;8.57;;
1062;SDS011;520;50.932;6.962;2023-05-13T02:51:24;10.70;;;9.53;;
1062;SDS011;520;50.932;6.962;2023-05-13T02:54:05;12.43;;;9.10;;
1062;SDS011;520;50.932;6.962;2023-05-13T02:56:35;9.23;;;8.30;;
1062;SDS011;520;50.932;6.962;2023-05-13T02:59:10;10.20;;;8.27;;
1062;SDS011;520;50.932;6.962;2023-05-13T03:01:42;11.57;;;8.33;;
1062;SDS011;520;50.932;6.962;2023-05-13T03:04:29;9.00;;;8.20;;
1062;SDS011;520;50.932;6.962;2023-05-13T03:07:05;9.27;;;8.20;;
1062;SDS011;520;50.932;6.962;2023-05-13T03:09:40;10.20;;;8.50;;
1062;SDS011;520;50.932;6.962;2023-05-13T03:12:33;11.20;;;9.10;;
1062;SDS011;520;50.932;6.962;2023-05-13T03:15:13;10.50;;;9.40;;
1062;SDS011;520;50.932;6.962;2023-05-13T03:17:46;11.87;;;8.83;;
1062;SDS011;520;50.932;6.962;2023-05-13T03:20:22;10.03;;;8.90;;
1062;SDS011;520;50.932;6.962;2023-05-13T03:22:57;9.60;;;8.60;;
1062;SDS011;520;50.932;6.962;2023-05-13T03:25:29;9.53;;;8.60;;
1062;SDS011;520;50.932;6.962;2023-05-13T03:27:58;11.50;;;9.30;;
1062;SDS011;520;50.932;6.962;2023-05-13T03:30:28;9.47;;;8.50;;
1062;SDS011;520;50.932;6.962;2023-05-13T03:32:56;10.67;;;9.03;;
1062;SDS011;520;50.932;6.962;2023-05-13T03:35:29;9.40;;;8.50;;
1062;SDS011;520;50.932;6.962;2023-05-13T03:38:08;10.57;;;9.50;;
1062;SDS011;520;50.932;6.962;2023-05-13T03:40:51;10.20;;;8.57;;
1062;SDS011;520;50.932;6.962;2023-05-13T03:43:39;13.07;;;9.73;;
1062;SDS011;520;50.932;6.962;2023-05-13T03:46:20;8.63;;;7.73;;
1062;SDS011;520;50.932;6.962;2023-05-13T03:49:09;8.83;;;7.90;;
1062;SDS011;520;50.932;6.962;2023-05-13T03:51:47;7.10;;;6.43;;
1062;SDS011;520;50.932;6.962;2023-05-13T03:54:23;7.17;;;6.40;;
1062;SDS011;520;50.932;6.962;2023-05-13T03:56:53;6.33;;;5.73;;
1062;SDS011;520;50.932;6.962;2023-05-13T03:59:35;6.80;;;6.20;;
1062;SDS011;520;50.932;6.962;2023-05-13T04:02:06;7.57;;;6.10;;
1062;SDS011;520;50.932;6.962;2023-05-13T04:04:41;7.10;;;6.00;;
1062;SDS011;520;50.932;6.962;2023-05-13T04:07:10;6.70;;;6.10;;
1062;SDS011;520;50.932;6.962;2023-05-13T04:09:42;7.27;;;6.50;;
1062;SDS011;520;50.932;6.962;2023-05-13T04:15:06;10.80;;;7.10;;
1062;SDS011;520;50.932;6.962;2023-05-13T04:17:36;8.13;;;7.00;;
1062;SDS011;520;50.932;6.962;2023-05-13T04:20:21;7.37;;;6.67;;
1062;SDS011;520;50.932;6.962;2023-05-13T04:22:54;7.37;;;6.67;;
1062;SDS011;520;50.932;6.962;2023-05-13T04:25:29;6.40;;;5.80;;
1062;SDS011;520;50.932;6.962;2023-05-13T04:28:04;7.47;;;6.50;;
1062;SDS011;520;50.932;6.962;2023-05-13T04:30:34;8.23;;;7.37;;
1062;SDS011;520;50.932;6.962;2023-05-13T04:33:07;7.57;;;6.40;;
1062;SDS011;520;50.932;6.962;2023-05-13T04:35:37;6.70;;;6.10;;
1062;SDS011;520;50.932;6.962;2023-05-13T04:38:17;6.97;;;6.37;;
1062;SDS011;520;50.932;6.962;2023-05-13T04:41:08;6.93;;;6.23;;
1062;SDS011;520;50.932;6.962;2023-05-13T04:43:52;6.20;;;5.60;;
1062;SDS011;520;50.932;6.962;2023-05-13T04:46:27;8.10;;;6.40;;
1062;SDS011;520;50.932;6.962;2023-05-13T04:49:06;7.80;;;6.03;;
1062;SDS011;520;50.932;6.962;2023-05-13T04:51:36;8.03;;;7.03;;
1062;SDS011;520;50.932;6.962;2023-05-13T04:54:13;8.43;;;7.53;;
1062;SDS011;520;50.932;6.962;2023-05-13T04:56:44;9.80;;;8.60;;
1062;SDS011;520;50.932;6.962;2023-05-13T04:59:34;11.10;;;9.50;;
1062;SDS011;520;50.932;6.962;2023-05-13T05:02:09;11.50;;;9.77;;
1062;SDS011;520;50.932;6.962;2023-05-13T05:04:48;12.90;;;11.40;;
1062;SDS011;520;50.932;6.962;2023-05-13T05:07:21;11.20;;;10.00;;
1062;SDS011;520;50.932;6.962;2023-05-13T05:10:00;12.13;;;10.83;;
1062;SDS011;520;50.932;6.962;2023-05-13T05:12:45;11.80;;;10.17;;
1062;SDS011;520;50.932;6.962;2023-05-13T05:15:29;11.90;;;10.70;;
1062;SDS011;520;50.932;6.962;2023-05-13T05:18:05;12.73;;;11.37;;
1062;SDS011;520;50.932;6.962;2023-05-13T05:20:38;12.00;;;10.67;;
1062;SDS011;520;50.932;6.962;2023-05-13T05:23:13;13.40;;;11.80;;
1062;SDS011;520;50.932;6.962;2023-05-13T05:25:48;16.57;;;11.27;;
1062;SDS011;520;50.932;6.962;2023-05-13T05:28:29;14.73;;;12.00;;
1062;SDS011;520;50.932;6.962;2023-05-13T05:31:02;10.70;;;9.70;;
1062;SDS011;520;50.932;6.962;2023-05-13T05:33:51;9.50;;;8.33;;
1062;SDS011;520;50.932;6.962;2023-05-13T05:36:36;10.53;;;8.10;;
1062;SDS011;520;50.932;6.962;2023-05-13T05:39:16;12.53;;;9.17;;
1062;SDS011;520;50.932;6.962;2023-05-13T05:41:43;9.37;;;8.53;;
1062;SDS011;520;50.932;6.962;2023-05-13T05:44:21;9.87;;;8.63;;
1062;SDS011;520;50.932;6.962;2023-05-13T05:46:48;9.83;;;8.83;;
1062;SDS011;520;50.932;6.962;2023-05-13T05:49:20;8.83;;;7.93;;
1062;SDS011;520;50.932;6.962;2023-05-13T05:51:54;11.70;;;8.07;;
1062;SDS011;520;50.932;6.962;2023-05-13T05:54:27;10.83;;;8.27;;
1062;SDS011;520;50.932;6.962;2023-05-13T05:56:59;11.93;;;8.37;;
1062;SDS011;520;50.932;6.962;2023-05-13T05:59:31;8.93;;;8.03;;
1062;SDS011;520;50.932;6.962;2023-05-13T06:02:06;8.70;;;7.77;;
1062;SDS011;520;50.932;6.962;2023-05-13T06:04:42;8.60;;;7.80;;
1062;SDS011;520;50.932;6.962;2023-05-13T06:07:16;7.87;;;7.10;;
1062;SDS011;520;50.932;6.962;2023-05-13T06:09:46;8.80;;;7.43;;
1062;SDS011;520;50.932;6.962;2023-05-13T06:12:14;9.10;;;8.20;;
1062;SDS011;520;50.932;6.962;2023-05-13T06:14:49;9.17;;;7.47;;
1062;SDS011;520;50.932;6.962;2023-05-13T06:17:22;8.03;;;7.27;;
1062;SDS011;520;50.932;6.962;2023-05-13T06:19:51;7.67;;;6.97;;
1062;SDS011;520;50.932;6.962;2023-05-13T06:22:23;9.70;;;8.07;;
1062;SDS011;520;50.932;6.962;2023-05-13T06:24:59;9.20;;;7.90;;
1062;SDS011;520;50.932;6.962;2023-05-13T06:27:35;8.80;;;7.60;;
1062;SDS011;520;50.932;6.962;2023-05-13T06:30:10;8.00;;;7.20;;
1062;SDS011;520;50.932;6.962;2023-05-13T06:32:48;7.83;;;7.03;;
1062;SDS011;520;50.932;6.962;2023-05-13T06:35:30;8.87;;;7.97;;
1062;SDS011;520;50.932;6.962;2023-05-13T06:38:05;8.57;;;7.67;;
1062;SDS011;520;50.932;6.962;2023-05-13T06:40:43;8.47;;;7.63;;
1062;SDS011;520;50.932;6.962;2023-05-13T06:43:15;10.03;;;7.50;;
1062;SDS011;520;50.932;6.962;2023-05-13T06:45:49;9.43;;;8.53;;
1062;SDS011;520;50.932;6.962;2023-05-13T06:48:20;7.47;;;6.77;;
1062;SDS011;520;50.932;6.962;2023-05-13T06:50:49;7.83;;;7.13;;
1062;SDS011;520;50.932;6.962;2023-05-13T06:53:24;9.33;;;8.33;;
1062;SDS011;520;50.932;6.962;2023-05-13T06:56:11;8.57;;;7.70;;
1062;SDS011;520;50.932;6.962;2023-05-13T06:58:45;8.50;;;6.93;;
1062;SDS011;520;50.932;6.962;2023-05-13T07:01:19;7.73;;;6.90;;
1062;SDS011;520;50.932;6.962;2023-05-13T07:03:58;7.43;;;6.73;;
1062;SDS011;520;50.932;6.962;2023-05-13T07:06:35;7.83;;;7.10;;
1062;SDS011;520;50.932;6.962;2023-05-13T07:09:05;7.63;;;6.83;;
1062;SDS011;520;50.932;6.962;2023-05-13T07:11:55;7.10;;;6.50;;
1062;SDS011;520;50.932;6.962;2023-05-13T07:14:39;8.03;;;7.33;;
1062;SDS011;520;50.932;6.962;2023-05-13T07:17:10;8.50;;;7.10;;
1062;SDS011;520;50.932;6.962;2023-05-13T07:19:45;7.17;;;6.47;;
1062;SDS011;520;50.932;6.962;2023-05-13T07:22:36;9.20;;;7.30;;
1062;SDS011;520;50.932;6.962;2023-05-13T07:25:20;7.60;;;6.73;;
1062;SDS011;520;50.932;6.962;2023-05-13T07:28:09;7.20;;;6.53;;
1062;SDS011;520;50.932;6.962;2023-05-13T07:30:47;7.13;;;6.37;;
1062;SDS011;520;50.932;6.962;2023-05-13T07:33:27;8.07;;;7.30;;
1062;SDS011;520;50.932;6.962;2023-05-13T07:36:06;9.43;;;6.60;;
1062;SDS011;520;50.932;6.962;2023-05-13T07:39:14;6.60;;;5.93;;
1062;SDS011;520;50.932;6.962;2023-05-13T07:42:14;6.80;;;5.60;;
1062;SDS011;520;50.932;6.962;2023-05-13T07:45:22;6.30;;;5.70;;
1062;SDS011;520;50.932;6.962;2023-05-13T07:48:24;7.20;;;6.50;;
1062;SDS011;520;50.932;6.962;2023-05-13T07:51:05;6.60;;;6.00;;
1062;SDS011;520;50.932;6.962;2023-05-13T07:53:53;10.40;;;8.93;;
1062;SDS011;520;50.932;6.962;2023-05-13T07:57:04;11.20;;;8.13;;
1062;SDS011;520;50.932;6.962;2023-05-13T07:59:45;6.63;;;6.03;;
1062;SDS011;520;50.932;6.962;2023-05-13T08:02:25;9.13;;;6.37;;
1062;SDS011;520;50.932;6.962;2023-05-13T08:05:18;6.33;;;5.73;;
1062;SDS011;520;50.932;6.962;2023-05-13T08:08:08;6.37;;;5.57;;
1062;SDS011;520;50.932;6.962;2023-05-13T08:11:32;9.20;;;5.57;;
1062;SDS011;520;50.932;6.962;2023-05-13T08:14:52;5.70;;;5.20;;
1062;SDS011;520;50.932;6.962;2023-05-13T08:18:20;5.67;;;5.17;;
1062;SDS011;520;50.932;6.962;2023-05-13T08:21:23;5.90;;;5.30;;
1062;SDS011;520;50.932;6.962;2023-05-13T08:24:29;6.10;;;5.10;;
1062;SDS011;520;50.932;6.962;2023-05-13T08:33:47;6.43;;;5.80;;
1062;SDS011;520;50.932;6.962;2023-05-13T08:40:12;7.00;;;6.30;;
1062;SDS011;520;50.932;6.962;2023-05-13T08:43:37;8.03;;;6.17;;
1062;SDS011;520;50.932;6.962;2023-05-13T08:46:33;7.03;;;6.33;;
1062;SDS011;520;50.932;6.962;2023-05-13T08:49:36;6.63;;;5.93;;
1062;SDS011;520;50.932;6.962;2023-05-13T08:53:02;6.70;;;6.10;;
1062;SDS011;520;50.932;6.962;2023-05-13T08:56:31;6.60;;;6.00;;
1062;SDS011;520;50.932;6.962;2023-05-13T08:59:20;6.07;;;5.47;;
1062;SDS011;520;50.932;6.962;2023-05-13T09:02:43;8.10;;;7.30;;
1062;SDS011;520;50.932;6.962;2023-05-13T09:05:45;5.97;;;5.40;;
1062;SDS011;520;50.932;6.962;2023-05-13T09:09:12;6.03;;;5.00;;
1062;SDS011;520;50.932;6.962;2023-05-13T09:15:34;5.07;;;4.57;;
1062;SDS011;520;50.932;6.962;2023-05-13T09:22:20;5.43;;;5.03;;
1062;SDS011;520;50.932;6.962;2023-05-13T09:25:26;4.63;;;4.30;;
1062;SDS011;520;50.932;6.962;2023-05-13T09:27:58;5.23;;;4.30;;
1062;SDS011;520;50.932;6.962;2023-05-13T09:30:37;4.23;;;3.83;;
1062;SDS011;520;50.932;6.962;2023-05-13T09:33:12;9.27;;;8.30;;
1062;SDS011;520;50.932;6.962;2023-05-13T09:35:42;5.17;;;4.67;;
1062;SDS011;520;50.932;6.962;2023-05-13T09:38:14;5.10;;;4.70;;
1062;SDS011;520;50.932;6.962;2023-05-13T09:40:54;4.17;;;3.87;;
1062;SDS011;520;50.932;6.962;2023-05-13T09:43:30;4.63;;;4.23;;
1062;SDS011;520;50.932;6.962;2023-05-13T09:46:01;4.63;;;4.23;;
1062;SDS011;520;50.932;6.962;2023-05-13T09:48:32;4.90;;;4.50;;
1062;SDS011;520;50.932;6.962;2023-05-13T09:51:05;4.33;;;4.03;;
1062;SDS011;520;50.932;6.962;2023-05-13T09:53:32;4.67;;;4.27;;
1062;SDS011;520;50.932;6.962;2023-05-13T09:56:00;4.37;;;4.07;;
1062;SDS011;520;50.932;6.962;2023-05-13T09:58:27;4.13;;;3.83;;
1062;SDS011;520;50.932;6.962;2023-05-13T10:00:56;4.17;;;3.87;;
1062;SDS011;520;50.932;6.962;2023-05-13T10:03:27;3.97;;;3.67;;
1062;SDS011;520;50.932;6.962;2023-05-13T10:05:54;4.60;;;4.23;;
1062;SDS011;520;50.932;6.962;2023-05-13T10:08:28;4.00;;;3.70;;
1062;SDS011;520;50.932;6.962;2023-05-13T10:10:56;3.60;;;3.40;;
1062;SDS011;520;50.932;6.962;2023-05-13T10:13:24;4.07;;;3.80;;
1062;SDS011;520;50.932;6.962;2023-05-13T10:15:55;4.10;;;3.80;;
1062;SDS011;520;50.932;6.962;2023-05-13T10:18:26;4.40;;;4.10;;
1062;SDS011;520;50.932;6.962;2023-05-13T10:20:56;4.60;;;4.20;;
1062;SDS011;520;50.932;6.962;2023-05-13T10:23:24;5.10;;;4.60;;
1062;SDS011;520;50.932;6.962;2023-05-13T10:25:53;5.77;;;4.40;;
1062;SDS011;520;50.932;6.962;2023-05-13T10:28:21;4.37;;;4.07;;
1062;SDS011;520;50.932;6.962;2023-05-13T10:30:50;6.73;;;4.77;;
1062;SDS011;520;50.932;6.962;2023-05-13T10:33:17;5.57;;;5.03;;
1062;SDS011;520;50.932;6.962;2023-05-13T10:35:52;4.60;;;4.30;;
1062;SDS011;520;50.932;6.962;2023-05-13T10:38:47;5.50;;;5.00;;
1062;SDS011;520;50.932;6.962;2023-05-13T10:44:20;5.70;;;5.13;;
1062;SDS011;520;50.932;6.962;2023-05-13T10:46:49;4.20;;;3.80;;
1062;SDS011;520;50.932;6.962;2023-05-13T10:49:16;4.60;;;4.20;;
1062;SDS011;520;50.932;6.962;2023-05-13T10:51:43;5.40;;;5.00;;
1062;SDS011;520;50.932;6.962;2023-05-13T10:54:18;5.20;;;4.80;;
1062;SDS011;520;50.932;6.962;2023-05-13T10:56:56;5.83;;;5.33;;
1062;SDS011;520;50.932;6.962;2023-05-13T10:59:25;6.30;;;5.80;;
1062;SDS011;520;50.932;6.962;2023-05-13T11:01:55;6.23;;;5.73;;
1062;SDS011;520;50.932;6.962;2023-05-13T11:04:23;5.93;;;5.33;;
1062;SDS011;520;50.932;6.962;2023-05-13T11:06:50;6.27;;;5.67;;
1062;SDS011;520;50.932;6.962;2023-05-13T11:11:46;6.50;;;5.90;;
1062;SDS011;520;50.932;6.962;2023-05-13T11:14:17;6.07;;;5.57;;
1062;SDS011;520;50.932;6.962;2023-05-13T11:19:21;7.20;;;6.50;;
1062;SDS011;520;50.932;6.962;2023-05-13T11:21:54;7.10;;;5.30;;
1062;SDS011;520;50.932;6.962;2023-05-13T11:24:30;4.20;;;3.80;;
1062;SDS011;520;50.932;6.962;2023-05-13T11:26:58;4.77;;;4.00;;
1062;SDS011;520;50.932;6.962;2023-05-13T11:29:37;2.80;;;2.60;;
1062;SDS011;520;50.932;6.962;2023-05-13T11:32:05;3.03;;;2.63;;
1062;SDS011;520;50.932;6.962;2023-05-13T11:34:32;2.30;;;2.10;;
1062;SDS011;520;50.932;6.962;2023-05-13T11:39:31;2.93;;;2.00;;
1062;SDS011;520;50.932;6.962;2023-05-13T11:41:58;2.37;;;1.50;;
1062;SDS011;520;50.932;6.962;2023-05-13T11:44:29;2.67;;;1.90;;
1062;SDS011;520;50.932;6.962;2023-05-13T11:47:00;3.90;;;2.77;;
1062;SDS011;520;50.932;6.962;2023-05-13T11:57:18;2.70;;;2.50;;
1062;SDS011;520;50.932;6.962;2023-05-13T12:03:32;2.50;;;2.30;;
1062;SDS011;520;50.932;6.962;2023-05-13T12:09:23;2.20;;;2.10;;
1062;SDS011;520;50.932;6.962;2023-05-13T12:12:33;3.40;;;2.97;;
1062;SDS011;520;50.932;6.962;2023-05-13T12:15:45;2.93;;;2.60;;
1062;SDS011;520;50.932;6.962;2023-05-13T12:25:52;2.50;;;2.30;;
1062;SDS011;520;50.932;6.962;2023-05-13T12:29:09;3.23;;;2.60;;
1062;SDS011;520;50.932;6.962;2023-05-13T12:32:08;2.77;;;2.57;;
1062;SDS011;520;50.932;6.962;2023-05-13T12:34:53;2.80;;;2.47;;
1062;SDS011;520;50.932;6.962;2023-05-13T12:37:42;3.00;;;2.70;;
1062;SDS011;520;50.932;6.962;2023-05-13T12:41:04;2.80;;;2.60;;
1062;SDS011;520;50.932;6.962;2023-05-13T12:46:50;2.27;;;2.07;;
1062;SDS011;520;50.932;6.962;2023-05-13T12:49:28;1.97;;;1.87;;
1062;SDS011;520;50.932;6.962;2023-05-13T12:52:12;2.40;;;2.13;;
1062;SDS011;520;50.932;6.962;2023-05-13T12:54:49;2.30;;;2.03;;
1062;SDS011;520;50.932;6.962;2023-05-13T12:57:29;1.93;;;1.83;;
1062;SDS011;520;50.932;6.962;2023-05-13T13:00:14;2.40;;;2.20;;
1062;SDS011;520;50.932;6.962;2023-05-13T13:02:56;2.13;;;1.93;;
1062;SDS011;520;50.932;6.962;2023-05-13T13:05:51;2.43;;;2.23;;
1062;SDS011;520;50.932;6.962;2023-05-13T13:11:47;2.30;;;2.17;;
1062;SDS011;520;50.932;6.962;2023-05-13T13:14:43;2.07;;;1.97;;
1062;SDS011;520;50.932;6.962;2023-05-13T13:17:38;2.63;;;2.37;;
1062;SDS011;520;50.932;6.962;2023-05-13T13:20:34;2.40;;;2.20;;
1062;SDS011;520;50.932;6.962;2023-05-13T13:23:29;2.50;;;2.10;;
1062;SDS011;520;50.932;6.962;2023-05-13T13:26:16;2.83;;;2.63;;
1062;SDS011;520;50.932;6.962;2023-05-13T13:28:52;2.80;;;2.00;;
1062;SDS011;520;50.932;6.962;2023-05-13T13:34:58;2.67;;;2.23;;
1062;SDS011;520;50.932;6.962;2023-05-13T13:37:46;2.30;;;2.10;;
1062;SDS011;520;50.932;6.962;2023-05-13T13:40:52;2.43;;;2.23;;
1062;SDS011;520;50.932;6.962;2023-05-13T13:43:47;2.20;;;2.00;;
1062;SDS011;520;50.932;6.962;2023-05-13T13:47:28;2.47;;;2.27;;
1062;SDS011;520;50.932;6.962;2023-05-13T13:50:16;2.33;;;2.13;;
1062;SDS011;520;50.932;6.962;2023-05-13T13:52:53;2.17;;;1.97;;
1062;SDS011;520;50.932;6.962;2023-05-13T13:56:23;2.70;;;2.50;;
1062;SDS011;520;50.932;6.962;2023-05-13T13:59:01;2.57;;;2.37;;
1062;SDS011;520;50.932;6.962;2023-05-13T14:01:41;3.10;;;2.73;;
1062;SDS011;520;50.932;6.962;2023-05-13T14:04:47;2.57;;;2.37;;
1062;SDS011;520;50.932;6.962;2023-05-13T14:07:49;2.63;;;2.43;;
1062;SDS011;520;50.932;6.962;2023-05-13T14:10:34;3.60;;;2.77;;
1062;SDS011;520;50.932;6.962;2023-05-13T14:13:01;3.97;;;2.60;;
1062;SDS011;520;50.932;6.962;2023-05-13T14:15:28;2.63;;;2.43;;
1062;SDS011;520;50.932;6.962;2023-05-13T14:17:56;3.70;;;2.50;;
1062;SDS011;520;50.932;6.962;2023-05-13T14:20:24;4.23;;;3.70;;
1062;SDS011;520;50.932;6.962;2023-05-13T14:22:50;2.43;;;2.23;;
1062;SDS011;520;50.932;6.962;2023-05-13T14:25:17;3.47;;;2.57;;
1062;SDS011;520;50.932;6.962;2023-05-13T14:27:44;2.80;;;2.60;;
1062;SDS011;520;50.932;6.962;2023-05-13T14:30:11;5.23;;;2.20;;
1062;SDS011;520;50.932;6.962;2023-05-13T14:32:39;2.60;;;2.40;;
1062;SDS011;520;50.932;6.962;2023-05-13T14:35:12;2.60;;;2.40;;
1062;SDS011;520;50.932;6.962;2023-05-13T14:37:44;3.00;;;2.80;;
1062;SDS011;520;50.932;6.962;2023-05-13T14:40:12;3.60;;;2.50;;
1062;SDS011;520;50.932;6.962;2023-05-13T14:42:39;5.27;;;2.80;;
1062;SDS011;520;50.932;6.962;2023-05-13T14:45:06;3.00;;;2.80;;
1062;SDS011;520;50.932;6.962;2023-05-13T14:47:36;2.90;;;2.57;;
1062;SDS011;520;50.932;6.962;2023-05-13T14:50:03;2.30;;;2.10;;
1062;SDS011;520;50.932;6.962;2023-05-13T14:52:33;2.83;;;2.63;;
1062;SDS011;520;50.932;6.962;2023-05-13T14:55:00;3.20;;;2.90;;
1062;SDS011;520;50.932;6.962;2023-05-13T14:57:27;2.97;;;2.77;;
1062;SDS011;520;50.932;6.962;2023-05-13T14:59:54;2.70;;;2.50;;
1062;SDS011;520;50.932;6.962;2023-05-13T15:02:23;2.20;;;2.03;;
1062;SDS011;520;50.932;6.962;2023-05-13T15:04:50;2.13;;;2.03;;
1062;SDS011;520;50.932;6.962;2023-05-13T15:07:18;2.30;;;2.10;;
1062;SDS011;520;50.932;6.962;2023-05-13T15:09:45;2.20;;;2.00;;
1062;SDS011;520;50.932;6.962;2023-05-13T15:12:12;5.33;;;2.57;;
1062;SDS011;520;50.932;6.962;2023-05-13T15:14:39;3.63;;;2.30;;
1062;SDS011;520;50.932;6.962;2023-05-13T15:17:07;2.57;;;2.37;;
1062;SDS011;520;50.932;6.962;2023-05-13T15:19:37;2.80;;;2.43;;
1062;SDS011;520;50.932;6.962;2023-05-13T15:22:04;2.90;;;2.70;;
1062;SDS011;520;50.932;6.962;2023-05-13T15:24:33;2.80;;;2.27;;
1062;SDS011;520;50.932;6.962;2023-05-13T15:27:00;2.87;;;2.60;;
1062;SDS011;520;50.932;6.962;2023-05-13T15:29:28;2.40;;;2.20;;
1062;SDS011;520;50.932;6.962;2023-05-13T15:31:56;2.53;;;2.33;;
1062;SDS011;520;50.932;6.962;2023-05-13T15:34:24;2.47;;;2.27;;
1062;SDS011;520;50.932;6.962;2023-05-13T15:36:51;2.77;;;2.57;;
1062;SDS011;520;50.932;6.962;2023-05-13T15:39:19;2.50;;;2.30;;
1062;SDS011;520;50.932;6.962;2023-05-13T15:41:47;2.60;;;2.40;;
1062;SDS011;520;50.932;6.962;2023-05-13T15:44:13;2.40;;;2.30;;
1062;SDS011;520;50.932;6.962;2023-05-13T15:46:41;2.70;;;2.50;;
1062;SDS011;520;50.932;6.962;2023-05-13T15:49:08;2.63;;;2.43;;
1062;SDS011;520;50.932;6.962;2023-05-13T15:51:35;2.83;;;2.47;;
1062;SDS011;520;50.932;6.962;2023-05-13T15:54:03;2.90;;;2.70;;
1062;SDS011;520;50.932;6.962;2023-05-13T15:57:08;4.57;;;2.77;;
1062;SDS011;520;50.932;6.962;2023-05-13T15:59:56;3.07;;;2.83;;
1062;SDS011;520;50.932;6.962;2023-05-13T16:03:06;2.50;;;2.40;;
1062;SDS011;520;50.932;6.962;2023-05-13T16:06:06;2.70;;;2.50;;
1062;SDS011;520;50.932;6.962;2023-05-13T16:08:44;3.90;;;2.80;;
1062;SDS011;520;50.932;6.962;2023-05-13T16:11:57;2.90;;;2.70;;
1062;SDS011;520;50.932;6.962;2023-05-13T16:14:45;5.60;;;2.70;;
1062;SDS011;520;50.932;6.962;2023-05-13T16:17:49;3.50;;;3.20;;
1062;SDS011;520;50.932;6.962;2023-05-13T16:21:15;3.70;;;3.40;;
1062;SDS011;520;50.932;6.962;2023-05-13T16:24:36;3.63;;;3.33;;
1062;SDS011;520;50.932;6.962;2023-05-13T16:27:32;3.53;;;3.33;;
1062;SDS011;520;50.932;6.962;2023-05-13T16:30:32;4.23;;;3.00;;
1062;SDS011;520;50.932;6.962;2023-05-13T16:33:13;3.30;;;3.10;;
1062;SDS011;520;50.932;6.962;2023-05-13T16:41:49;4.33;;;2.60;;
1062;SDS011;520;50.932;6.962;2023-05-13T16:44:48;2.83;;;2.63;;
1062;SDS011;520;50.932;6.962;2023-05-13T16:47:38;2.77;;;2.53;;
1062;SDS011;520;50.932;6.962;2023-05-13T16:50:37;2.83;;;2.63;;
1062;SDS011;520;50.932;6.962;2023-05-13T16:53:33;3.13;;;2.87;;
1062;SDS011;520;50.932;6.962;2023-05-13T16:56:14;2.93;;;2.73;;
1062;SDS011;520;50.932;6.962;2023-05-13T16:59:32;3.27;;;3.00;;
1062;SDS011;520;50.932;6.962;2023-05-13T17:02:24;3.30;;;3.00;;
1062;SDS011;520;50.932;6.962;2023-05-13T17:05:39;3.93;;;3.43;;
1062;SDS011;520;50.932;6.962;2023-05-13T17:08:16;3.60;;;3.30;;
1062;SDS011;520;50.932;6.962;2023-05-13T17:11:22;3.43;;;3.13;;
1062;SDS011;520;50.932;6.962;2023-05-13T17:14:09;3.27;;;3.07;;
1062;SDS011;520;50.932;6.962;2023-05-13T17:16:59;3.93;;;3.50;;
1062;SDS011;520;50.932;6.962;2023-05-13T17:20:13;3.73;;;3.30;;
1062;SDS011;520;50.932;6.962;2023-05-13T17:23:11;3.03;;;2.83;;
1062;SDS011;520;50.932;6.962;2023-05-13T17:25:58;3.47;;;3.17;;
1062;SDS011;520;50.932;6.962;2023-05-13T17:28:44;3.20;;;3.00;;
1062;SDS011;520;50.932;6.962;2023-05-13T17:31:37;3.70;;;3.40;;
1062;SDS011;520;50.932;6.962;2023-05-13T17:40:27;4.03;;;3.37;;
1062;SDS011;520;50.932;6.962;2023-05-13T17:43:26;4.00;;;3.60;;
1062;SDS011;520;50.932;6.962;2023-05-13T17:46:33;3.63;;;3.33;;
1062;SDS011;520;50.932;6.962;2023-05-13T17:49:18;4.20;;;3.90;;
1062;SDS011;520;50.932;6.962;2023-05-13T17:58:50;6.30;;;5.40;;
1062;SDS011;520;50.932;6.962;2023-05-13T18:01:39;5.17;;;4.67;;
1062;SDS011;520;50.932;6.962;2023-05-13T18:04:21;5.17;;;4.67;;
1062;SDS011;520;50.932;6.962;2023-05-13T18:07:21;5.57;;;4.93;;
1062;SDS011;520;50.932;6.962;2023-05-13T18:10:04;6.17;;;4.70;;
1062;SDS011;520;50.932;6.962;2023-05-13T18:13:02;4.13;;;3.83;;
1062;SDS011;520;50.932;6.962;2023-05-13T18:16:16;3.60;;;3.30;;
1062;SDS011;520;50.932;6.962;2023-05-13T18:19:00;4.10;;;3.80;;